createdAt,value
2023-01-13T00:00:54.983Z,11.9
2023-01-13T00:01:58.263Z,11.9
2023-01-13T00:03:01.785Z,11.9
2023-01-13T00:04:05.375Z,11.9
2023-01-13T00:05:08.373Z,11.9
2023-01-13T00:06:11.960Z,12
2023-01-13T00:07:14.810Z,12
2023-01-13T00:08:17.667Z,12
2023-01-13T00:09:19.743Z,12
2023-01-13T00:10:22.968Z,12
2023-01-13T00:11:26.550Z,12
2023-01-13T00:12:29.350Z,12
2023-01-13T00:13:32.705Z,12
2023-01-13T00:14:37.174Z,12
2023-01-13T00:15:40.093Z,12
2023-01-13T00:16:43.620Z,12
2023-01-13T00:17:47.516Z,12
2023-01-13T00:18:51.379Z,12
2023-01-13T00:19:54.299Z,12
2023-01-13T00:20:57.111Z,11.9
2023-01-13T00:22:00.252Z,11.9
2023-01-13T00:23:04.131Z,11.9
2023-01-13T00:24:07.500Z,11.9
2023-01-13T00:25:10.357Z,11.9
2023-01-13T00:26:13.639Z,11.9
2023-01-13T00:27:17.402Z,11.9
2023-01-13T00:28:21.285Z,12
2023-01-13T00:29:24.313Z,11.9
2023-01-13T00:30:28.534Z,12
2023-01-13T00:31:32.361Z,12
2023-01-13T00:32:36.098Z,12
2023-01-13T00:33:39.457Z,12
2023-01-13T00:34:42.508Z,12
2023-01-13T00:35:45.399Z,12
2023-01-13T00:36:49.109Z,12
2023-01-13T00:37:52.331Z,12
2023-01-13T00:40:13.671Z,12
2023-01-13T00:41:16.646Z,12
2023-01-13T00:42:19.743Z,12
2023-01-13T00:43:23.243Z,12
2023-01-13T00:44:26.979Z,12
2023-01-13T00:45:30.401Z,12
2023-01-13T00:46:33.617Z,12
2023-01-13T00:47:36.956Z,12
2023-01-13T00:48:40.762Z,12
2023-01-13T00:49:44.274Z,12
2023-01-13T00:50:46.980Z,12
2023-01-13T00:51:50.704Z,12
2023-01-13T00:52:54.491Z,12
2023-01-13T00:53:58.244Z,12
2023-01-13T00:55:00.783Z,12
2023-01-13T00:56:03.719Z,12
2023-01-13T00:57:07.852Z,12
2023-01-13T00:58:10.143Z,12
2023-01-13T00:59:13.292Z,12
2023-01-13T01:00:15.957Z,12
2023-01-13T01:01:20.135Z,12
2023-01-13T01:02:25.123Z,12
2023-01-13T01:03:28.570Z,12
2023-01-13T01:04:31.743Z,12
2023-01-13T01:05:35.085Z,12
2023-01-13T01:06:38.706Z,12
2023-01-13T01:07:42.113Z,12
2023-01-13T01:08:45.211Z,12
2023-01-13T01:09:48.702Z,12
2023-01-13T01:10:51.884Z,12
2023-01-13T01:11:54.797Z,12
2023-01-13T01:12:57.321Z,12
2023-01-13T01:14:00.841Z,12
2023-01-13T01:15:04.475Z,12
2023-01-13T01:16:08.145Z,12
2023-01-13T01:17:11.341Z,12
2023-01-13T01:18:14.239Z,12
2023-01-13T01:19:18.252Z,12.1
2023-01-13T01:20:21.648Z,12
2023-01-13T01:21:25.196Z,12
2023-01-13T01:22:28.521Z,12
2023-01-13T01:23:32.254Z,12
2023-01-13T01:24:35.211Z,12
2023-01-13T01:25:38.308Z,12
2023-01-13T01:26:41.928Z,12
2023-01-13T01:27:44.878Z,12
2023-01-13T01:28:47.978Z,12.1
2023-01-13T01:29:51.498Z,12
2023-01-13T01:30:54.080Z,12.1
2023-01-13T01:31:57.271Z,12.1
2023-01-13T01:32:59.665Z,12
2023-01-13T01:34:02.567Z,12
2023-01-13T01:35:06.428Z,12
2023-01-13T01:36:10.681Z,12
2023-01-13T01:37:14.908Z,12
2023-01-13T01:38:18.758Z,12
2023-01-13T01:39:22.229Z,12
2023-01-13T01:40:25.143Z,12.1
2023-01-13T01:41:29.322Z,12.1
2023-01-13T01:42:32.444Z,12.1
2023-01-13T01:43:35.259Z,12
2023-01-13T01:44:38.111Z,12.1
2023-01-13T01:45:41.388Z,12
2023-01-13T01:46:44.818Z,12.1
2023-01-13T01:47:48.113Z,12.1
2023-01-13T01:48:51.576Z,12.1
2023-01-13T01:49:54.150Z,12.1
2023-01-13T01:50:56.697Z,12.1
2023-01-13T01:51:59.856Z,12.1
2023-01-13T01:53:03.632Z,12.1
2023-01-13T01:54:06.603Z,12.1
2023-01-13T01:55:10.136Z,12.1
2023-01-13T01:56:13.882Z,12.1
2023-01-13T01:57:16.420Z,12.1
2023-01-13T01:58:19.740Z,12.1
2023-01-13T01:59:22.556Z,12.1
2023-01-13T02:00:26.038Z,12.1
2023-01-13T02:01:29.424Z,12.1
2023-01-13T02:02:33.580Z,12.1
2023-01-13T02:03:37.281Z,12.1
2023-01-13T02:04:40.318Z,12.1
2023-01-13T02:05:43.975Z,12.1
2023-01-13T02:06:47.246Z,12.1
2023-01-13T02:07:50.749Z,12.1
2023-01-13T02:08:54.251Z,12.1
2023-01-13T02:09:57.846Z,12
2023-01-13T02:11:00.785Z,12
2023-01-13T02:12:04.264Z,12
2023-01-13T02:13:08.087Z,12
2023-01-13T02:14:11.631Z,12
2023-01-13T02:15:14.324Z,12
2023-01-13T02:16:18.241Z,12
2023-01-13T02:17:21.670Z,12
2023-01-13T02:18:24.901Z,12
2023-01-13T02:19:27.995Z,12
2023-01-13T02:20:31.562Z,12
2023-01-13T02:21:34.755Z,11.9
2023-01-13T02:22:37.868Z,11.9
2023-01-13T02:23:41.095Z,11.9
2023-01-13T02:24:44.597Z,11.9
2023-01-13T02:25:48.808Z,11.9
2023-01-13T02:26:52.528Z,11.9
2023-01-13T02:27:56.147Z,11.9
2023-01-13T02:28:59.852Z,11.9
2023-01-13T02:30:03.420Z,11.9
2023-01-13T02:31:05.976Z,11.9
2023-01-13T02:32:09.163Z,11.9
2023-01-13T02:33:12.656Z,11.9
2023-01-13T02:34:15.949Z,11.9
2023-01-13T02:35:19.154Z,11.9
2023-01-13T02:36:22.272Z,11.9
2023-01-13T02:37:25.193Z,11.9
2023-01-13T02:38:28.679Z,11.8
2023-01-13T02:39:31.717Z,11.8
2023-01-13T02:40:34.993Z,11.8
2023-01-13T02:41:38.821Z,11.8
2023-01-13T02:42:42.418Z,11.7
2023-01-13T02:43:45.303Z,11.7
2023-01-13T02:44:48.769Z,11.6
2023-01-13T02:45:52.045Z,11.6
2023-01-13T02:46:56.212Z,11.6
2023-01-13T02:47:59.342Z,11.6
2023-01-13T02:49:02.555Z,11.5
2023-01-13T02:50:05.819Z,11.5
2023-01-13T02:51:09.693Z,11.5
2023-01-13T02:52:13.008Z,11.5
2023-01-13T02:53:15.917Z,11.5
2023-01-13T02:54:19.181Z,11.5
2023-01-13T02:55:22.708Z,11.5
2023-01-13T02:56:26.271Z,11.4
2023-01-13T02:57:29.512Z,11.4
2023-01-13T02:58:33.064Z,11.4
2023-01-13T02:59:36.350Z,11.4
2023-01-13T03:00:39.075Z,11.4
2023-01-13T03:01:42.936Z,11.4
2023-01-13T03:02:46.774Z,11.4
2023-01-13T03:03:49.992Z,11.4
2023-01-13T03:04:53.127Z,11.3
2023-01-13T03:05:56.539Z,11.4
2023-01-13T03:06:59.634Z,11.3
2023-01-13T03:08:03.048Z,11.3
2023-01-13T03:09:06.061Z,11.3
2023-01-13T03:10:08.581Z,11.3
2023-01-13T03:11:12.101Z,11.3
2023-01-13T03:12:16.212Z,11.3
2023-01-13T03:13:19.432Z,11.3
2023-01-13T03:14:22.820Z,11.3
2023-01-13T03:15:25.327Z,11.3
2023-01-13T03:16:28.535Z,11.3
2023-01-13T03:17:32.865Z,11.2
2023-01-13T03:18:35.999Z,11.2
2023-01-13T03:19:39.010Z,11.2
2023-01-13T03:20:42.400Z,11.2
2023-01-13T03:21:46.046Z,11.2
2023-01-13T03:22:48.790Z,11.1
2023-01-13T03:23:51.801Z,11.1
2023-01-13T03:24:55.264Z,11.1
2023-01-13T03:25:58.594Z,11.1
2023-01-13T03:27:01.367Z,11.1
2023-01-13T03:28:05.113Z,11.1
2023-01-13T03:29:08.065Z,11.1
2023-01-13T03:30:10.694Z,11.1
2023-01-13T03:31:13.723Z,11
2023-01-13T03:32:16.182Z,11
2023-01-13T03:33:19.619Z,11.1
2023-01-13T03:34:22.456Z,11
2023-01-13T03:35:25.076Z,11
2023-01-13T03:36:27.820Z,11
2023-01-13T03:37:31.309Z,11
2023-01-13T03:38:34.984Z,11
2023-01-13T03:39:38.506Z,11
2023-01-13T03:40:42.615Z,11
2023-01-13T03:41:46.279Z,11
2023-01-13T03:42:49.806Z,11
2023-01-13T03:43:53.056Z,11
2023-01-13T03:44:56.572Z,10.9
2023-01-13T03:45:59.733Z,10.9
2023-01-13T03:47:02.602Z,10.9
2023-01-13T03:48:05.657Z,10.9
2023-01-13T03:49:08.662Z,10.9
2023-01-13T03:50:11.500Z,10.9
2023-01-13T03:51:14.647Z,10.9
2023-01-13T03:52:18.029Z,10.8
2023-01-13T03:53:21.078Z,10.9
2023-01-13T03:54:24.403Z,10.8
2023-01-13T03:55:27.280Z,10.8
2023-01-13T03:56:30.876Z,10.8
2023-01-13T03:57:33.406Z,10.8
2023-01-13T03:58:36.618Z,10.8
2023-01-13T03:59:40.294Z,10.8
2023-01-13T04:00:43.533Z,10.8
2023-01-13T04:01:47.070Z,10.8
2023-01-13T04:02:50.454Z,10.8
2023-01-13T04:03:54.028Z,10.8
2023-01-13T04:04:56.985Z,10.8
2023-01-13T04:05:59.732Z,10.8
2023-01-13T04:07:02.444Z,10.8
2023-01-13T04:08:05.608Z,10.8
2023-01-13T04:09:08.734Z,10.7
2023-01-13T04:10:11.541Z,10.8
2023-01-13T04:11:14.992Z,10.8
2023-01-13T04:12:18.270Z,10.7
2023-01-13T04:13:21.651Z,10.7
2023-01-13T04:14:24.716Z,10.7
2023-01-13T04:15:28.496Z,10.7
2023-01-13T04:16:32.180Z,10.7
2023-01-13T04:17:37.916Z,10.7
2023-01-13T04:18:41.287Z,10.6
2023-01-13T04:19:44.652Z,10.6
2023-01-13T04:20:47.449Z,10.6
2023-01-13T04:21:49.970Z,10.6
2023-01-13T04:22:53.327Z,10.7
2023-01-13T04:23:56.503Z,10.6
2023-01-13T04:24:59.527Z,10.6
2023-01-13T04:26:02.367Z,10.6
2023-01-13T04:27:05.668Z,10.6
2023-01-13T04:28:08.745Z,10.6
2023-01-13T04:29:15.701Z,10.6
2023-01-13T04:30:18.950Z,10.6
2023-01-13T04:31:23.215Z,10.6
2023-01-13T04:32:26.716Z,10.6
2023-01-13T04:33:29.510Z,10.6
2023-01-13T04:34:32.873Z,10.6
2023-01-13T04:35:36.056Z,10.6
2023-01-13T04:36:38.891Z,10.6
2023-01-13T04:37:42.523Z,10.6
2023-01-13T04:38:45.855Z,10.5
2023-01-13T04:39:49.219Z,10.5
2023-01-13T04:40:51.972Z,10.5
2023-01-13T04:41:55.080Z,10.6
2023-01-13T04:42:58.251Z,10.5
2023-01-13T04:44:00.858Z,10.5
2023-01-13T04:45:04.162Z,10.5
2023-01-13T04:46:07.156Z,10.4
2023-01-13T04:47:11.459Z,10.4
2023-01-13T04:48:14.885Z,10.4
2023-01-13T04:49:17.598Z,10.4
2023-01-13T04:50:21.305Z,10.4
2023-01-13T04:51:24.652Z,10.4
2023-01-13T04:52:27.786Z,10.4
2023-01-13T04:53:30.266Z,10.4
2023-01-13T04:54:34.003Z,10.3
2023-01-13T04:55:36.774Z,10.3
2023-01-13T04:56:40.269Z,10.3
2023-01-13T04:57:43.650Z,10.3
2023-01-13T04:58:45.907Z,10.3
2023-01-13T04:59:48.694Z,10.3
2023-01-13T05:00:51.934Z,10.2
2023-01-13T05:01:56.578Z,10.2
2023-01-13T05:02:59.888Z,10.2
2023-01-13T05:04:03.360Z,10.2
2023-01-13T05:05:06.715Z,10.3
2023-01-13T05:06:09.513Z,10.3
2023-01-13T05:07:12.943Z,10.3
2023-01-13T05:08:16.401Z,10.2
2023-01-13T05:09:19.850Z,10.2
2023-01-13T05:10:24.915Z,10.2
2023-01-13T05:11:28.427Z,10.2
2023-01-13T05:12:31.517Z,10.3
2023-01-13T05:13:34.856Z,10.2
2023-01-13T05:14:38.602Z,10.2
2023-01-13T05:15:41.248Z,10.2
2023-01-13T05:16:45.177Z,10.2
2023-01-13T05:17:48.716Z,10.2
2023-01-13T05:18:52.146Z,10.2
2023-01-13T05:19:55.575Z,10.2
2023-01-13T05:20:59.402Z,10.2
2023-01-13T05:22:02.193Z,10.2
2023-01-13T05:23:05.009Z,10.2
2023-01-13T05:24:07.156Z,10.2
2023-01-13T05:25:10.010Z,10.2
2023-01-13T05:26:13.040Z,10.2
2023-01-13T05:27:16.181Z,10.2
2023-01-13T05:28:19.210Z,10.1
2023-01-13T05:29:22.052Z,10.2
2023-01-13T05:30:26.059Z,10.1
2023-01-13T05:31:28.985Z,10.1
2023-01-13T05:32:32.942Z,10.1
2023-01-13T05:33:37.041Z,10.1
2023-01-13T05:34:40.797Z,10.1
2023-01-13T05:35:43.942Z,10.1
2023-01-13T05:36:47.410Z,10.1
2023-01-13T05:37:49.719Z,10.1
2023-01-13T05:38:52.830Z,10.1
2023-01-13T05:39:56.340Z,10.1
2023-01-13T05:41:00.647Z,10.1
2023-01-13T05:42:04.407Z,10.1
2023-01-13T05:43:07.595Z,10.1
2023-01-13T05:44:11.003Z,10
2023-01-13T05:45:14.402Z,10
2023-01-13T05:46:17.903Z,10.1
2023-01-13T05:47:21.355Z,10.1
2023-01-13T05:48:24.125Z,10
2023-01-13T05:49:27.534Z,10
2023-01-13T05:50:30.702Z,10.1
2023-01-13T05:51:34.464Z,10
2023-01-13T05:52:38.221Z,10
2023-01-13T05:53:41.687Z,10
2023-01-13T05:54:45.155Z,10
2023-01-13T05:55:47.035Z,9.9
2023-01-13T05:56:50.423Z,9.9
2023-01-13T05:57:53.218Z,9.9
2023-01-13T05:58:56.958Z,9.9
2023-01-13T06:00:00.640Z,9.9
2023-01-13T06:01:03.549Z,9.9
2023-01-13T06:02:06.809Z,9.9
2023-01-13T06:03:09.460Z,9.9
2023-01-13T06:04:13.219Z,9.9
2023-01-13T06:05:16.700Z,9.9
2023-01-13T06:06:19.927Z,9.8
2023-01-13T06:07:23.323Z,9.8
2023-01-13T06:08:26.413Z,9.8
2023-01-13T06:09:29.116Z,9.8
2023-01-13T06:10:31.947Z,9.8
2023-01-13T06:11:35.412Z,9.8
2023-01-13T06:12:38.228Z,9.8
2023-01-13T06:13:41.389Z,9.7
2023-01-13T06:14:44.865Z,9.7
2023-01-13T06:15:48.438Z,9.7
2023-01-13T06:16:51.229Z,9.7
2023-01-13T06:17:54.947Z,9.7
2023-01-13T06:18:57.895Z,9.7
2023-01-13T06:20:01.075Z,9.7
2023-01-13T06:21:04.498Z,9.7
2023-01-13T06:22:08.179Z,9.7
2023-01-13T06:23:11.492Z,9.7
2023-01-13T06:24:14.871Z,9.7
2023-01-13T06:25:17.756Z,9.7
2023-01-13T06:26:20.839Z,9.7
2023-01-13T06:27:24.517Z,9.7
2023-01-13T06:28:26.971Z,9.7
2023-01-13T06:29:29.979Z,9.7
2023-01-13T06:30:33.098Z,9.7
2023-01-13T06:31:36.283Z,9.7
2023-01-13T06:32:39.644Z,9.7
2023-01-13T06:33:42.812Z,9.7
2023-01-13T06:34:45.564Z,9.7
2023-01-13T06:35:48.921Z,9.7
2023-01-13T06:36:52.315Z,9.7
2023-01-13T06:37:56.002Z,9.7
2023-01-13T06:38:59.480Z,9.7
2023-01-13T06:40:02.518Z,9.7
2023-01-13T06:41:05.305Z,9.7
2023-01-13T06:42:08.583Z,9.7
2023-01-13T06:43:15.781Z,9.7
2023-01-13T06:44:20.685Z,9.7
2023-01-13T06:45:24.342Z,9.7
2023-01-13T06:46:27.813Z,9.7
2023-01-13T06:47:31.349Z,9.6
2023-01-13T06:48:34.852Z,9.7
2023-01-13T06:49:38.804Z,9.6
2023-01-13T06:50:41.507Z,9.6
2023-01-13T06:51:44.307Z,9.6
2023-01-13T06:52:47.777Z,9.6
2023-01-13T06:53:50.653Z,9.6
2023-01-13T06:54:54.369Z,9.6
2023-01-13T06:55:57.232Z,9.6
2023-01-13T06:56:59.675Z,9.6
2023-01-13T06:58:03.039Z,9.6
2023-01-13T06:59:06.055Z,9.6
2023-01-13T07:00:09.269Z,9.6
2023-01-13T07:01:13.459Z,9.6
2023-01-13T07:02:17.279Z,9.6
2023-01-13T07:03:20.932Z,9.6
2023-01-13T07:04:24.054Z,9.6
2023-01-13T07:05:26.769Z,9.6
2023-01-13T07:06:30.234Z,9.6
2023-01-13T07:07:33.910Z,9.6
2023-01-13T07:08:37.338Z,9.6
2023-01-13T07:09:41.162Z,9.6
2023-01-13T07:10:44.024Z,9.6
2023-01-13T07:11:47.119Z,9.6
2023-01-13T07:12:50.512Z,9.6
2023-01-13T07:13:53.221Z,9.6
2023-01-13T07:14:56.602Z,9.6
2023-01-13T07:16:00.732Z,9.6
2023-01-13T07:17:04.076Z,9.6
2023-01-13T07:18:06.583Z,9.6
2023-01-13T07:19:09.692Z,9.6
2023-01-13T07:20:12.135Z,9.6
2023-01-13T07:21:15.847Z,9.6
2023-01-13T07:22:19.251Z,9.6
2023-01-13T07:23:22.905Z,9.6
2023-01-13T07:24:26.726Z,9.6
2023-01-13T07:25:30.764Z,9.6
2023-01-13T07:26:33.912Z,9.6
2023-01-13T07:27:37.246Z,9.6
2023-01-13T07:28:39.970Z,9.6
2023-01-13T07:29:43.707Z,9.6
2023-01-13T07:30:46.818Z,9.6
2023-01-13T07:31:51.084Z,9.6
2023-01-13T07:32:54.659Z,9.6
2023-01-13T07:33:58.089Z,9.6
2023-01-13T07:35:01.516Z,9.6
2023-01-13T07:36:04.340Z,9.6
2023-01-13T07:37:07.145Z,9.6
2023-01-13T07:38:10.941Z,9.6
2023-01-13T07:39:13.674Z,9.6
2023-01-13T07:40:16.833Z,9.6
2023-01-13T07:41:20.277Z,9.6
2023-01-13T07:42:24.018Z,9.6
2023-01-13T07:43:26.731Z,9.6
2023-01-13T07:44:29.815Z,9.6
2023-01-13T07:45:33.479Z,9.6
2023-01-13T07:46:37.043Z,9.6
2023-01-13T07:47:40.471Z,9.6
2023-01-13T07:48:43.914Z,9.6
2023-01-13T07:49:47.034Z,9.6
2023-01-13T07:50:50.059Z,9.6
2023-01-13T07:51:53.280Z,9.6
2023-01-13T07:52:56.073Z,9.6
2023-01-13T07:53:58.648Z,9.6
2023-01-13T07:55:02.261Z,9.6
2023-01-13T07:56:05.788Z,9.6
2023-01-13T07:57:09.620Z,9.6
2023-01-13T07:58:13.120Z,9.6
2023-01-13T07:59:16.472Z,9.6
2023-01-13T08:00:19.939Z,9.6
2023-01-13T08:01:23.858Z,9.6
2023-01-13T08:02:28.660Z,9.6
2023-01-13T08:03:32.275Z,9.6
2023-01-13T08:04:35.289Z,9.6
2023-01-13T08:05:38.656Z,9.6
2023-01-13T08:06:41.755Z,9.6
2023-01-13T08:07:44.466Z,9.6
2023-01-13T08:08:48.207Z,9.6
2023-01-13T08:09:51.867Z,9.7
2023-01-13T08:10:55.313Z,9.7
2023-01-13T08:11:58.387Z,9.7
2023-01-13T08:13:02.350Z,9.7
2023-01-13T08:14:05.769Z,9.7
2023-01-13T08:15:09.163Z,9.7
2023-01-13T08:16:12.558Z,9.7
2023-01-13T08:17:16.298Z,9.7
2023-01-13T08:18:23.521Z,9.7
2023-01-13T08:19:26.868Z,9.7
2023-01-13T08:20:30.623Z,9.7
2023-01-13T08:21:33.937Z,9.7
2023-01-13T08:22:37.708Z,9.7
2023-01-13T08:23:40.459Z,9.7
2023-01-13T08:24:44.229Z,9.7
2023-01-13T08:25:47.334Z,9.7
2023-01-13T08:26:49.880Z,9.7
2023-01-13T08:27:53.059Z,9.7
2023-01-13T08:28:56.902Z,9.7
2023-01-13T08:30:00.409Z,9.7
2023-01-13T08:31:03.496Z,9.7
2023-01-13T08:32:07.253Z,9.7
2023-01-13T08:33:10.796Z,9.7
2023-01-13T08:34:13.887Z,9.7
2023-01-13T08:35:16.635Z,9.7
2023-01-13T08:36:20.477Z,9.7
2023-01-13T08:37:23.676Z,9.7
2023-01-13T08:38:27.131Z,9.7
2023-01-13T08:39:30.170Z,9.7
2023-01-13T08:40:33.273Z,9.7
2023-01-13T08:41:36.107Z,9.7
2023-01-13T08:42:39.884Z,9.7
2023-01-13T08:43:43.042Z,9.7
2023-01-13T08:44:46.641Z,9.7
2023-01-13T08:45:49.952Z,9.7
2023-01-13T08:46:53.121Z,9.7
2023-01-13T08:47:56.255Z,9.7
2023-01-13T08:48:59.293Z,9.7
2023-01-13T08:50:01.916Z,9.7
2023-01-13T08:51:04.913Z,9.8
2023-01-13T08:52:08.742Z,9.8
2023-01-13T08:53:11.907Z,9.8
2023-01-13T08:54:15.227Z,9.8
2023-01-13T08:55:18.485Z,9.8
2023-01-13T08:56:21.582Z,9.9
2023-01-13T08:57:24.947Z,9.9
2023-01-13T08:58:28.496Z,9.9
2023-01-13T08:59:32.059Z,9.9
2023-01-13T09:00:35.763Z,9.9
2023-01-13T09:01:39.754Z,9.9
2023-01-13T09:02:42.912Z,9.9
2023-01-13T09:03:46.013Z,9.9
2023-01-13T09:04:49.888Z,9.9
2023-01-13T09:05:53.475Z,9.9
2023-01-13T09:06:57.303Z,9.9
2023-01-13T09:08:01.009Z,9.9
2023-01-13T09:09:04.452Z,9.8
2023-01-13T09:10:07.878Z,9.9
2023-01-13T09:11:10.974Z,9.9
2023-01-13T09:12:14.398Z,9.9
2023-01-13T09:13:17.669Z,9.9
2023-01-13T09:14:21.102Z,9.9
2023-01-13T09:15:24.520Z,9.9
2023-01-13T09:16:28.330Z,9.9
2023-01-13T09:17:31.771Z,9.9
2023-01-13T09:18:35.488Z,10
2023-01-13T09:19:38.883Z,10
2023-01-13T09:20:42.674Z,10
2023-01-13T09:21:46.076Z,10.1
2023-01-13T09:22:49.513Z,10.1
2023-01-13T09:23:53.157Z,10.1
2023-01-13T09:24:56.648Z,10.1
2023-01-13T09:25:59.420Z,10.2
2023-01-13T09:27:01.879Z,10.2
2023-01-13T09:28:05.377Z,10.2
2023-01-13T09:29:08.511Z,10.3
2023-01-13T09:30:11.627Z,10.4
2023-01-13T09:31:15.041Z,10.4
2023-01-13T09:32:18.864Z,10.5
2023-01-13T09:33:22.685Z,10.6
2023-01-13T09:34:25.775Z,10.6
2023-01-13T09:35:28.876Z,10.6
2023-01-13T09:36:32.876Z,10.7
2023-01-13T09:37:35.648Z,10.7
2023-01-13T09:38:38.940Z,10.8
2023-01-13T09:39:42.054Z,10.8
2023-01-13T09:40:45.379Z,10.9
2023-01-13T09:41:48.600Z,11
2023-01-13T09:42:51.069Z,11
2023-01-13T09:43:53.568Z,11.1
2023-01-13T09:44:57.419Z,11.1
2023-01-13T09:46:01.021Z,11.2
2023-01-13T09:47:04.806Z,11.3
2023-01-13T09:48:08.526Z,11.4
2023-01-13T09:49:12.016Z,11.4
2023-01-13T09:50:15.718Z,11.5
2023-01-13T09:51:19.632Z,11.6
2023-01-13T09:52:26.899Z,11.6
2023-01-13T09:53:30.184Z,11.7
2023-01-13T09:54:33.608Z,11.8
2023-01-13T09:55:36.717Z,11.8
2023-01-13T09:56:40.388Z,11.8
2023-01-13T09:57:43.947Z,11.9
2023-01-13T09:58:47.098Z,11.9
2023-01-13T09:59:50.832Z,12
2023-01-13T10:00:53.743Z,12
2023-01-13T10:01:57.232Z,12
2023-01-13T10:03:00.932Z,12
2023-01-13T10:04:04.984Z,12
2023-01-13T10:05:11.975Z,12
2023-01-13T10:06:15.385Z,12
2023-01-13T10:07:18.401Z,11.9
2023-01-13T10:08:25.514Z,11.9
2023-01-13T10:09:28.651Z,11.9
2023-01-13T10:10:31.262Z,11.8
2023-01-13T10:11:34.435Z,11.8
2023-01-13T10:12:36.911Z,11.8
2023-01-13T10:13:40.005Z,11.8
2023-01-13T10:14:44.066Z,11.7
2023-01-13T10:15:47.654Z,11.7
2023-01-13T10:16:50.763Z,11.7
2023-01-13T10:17:54.060Z,11.7
2023-01-13T10:18:57.564Z,11.7
2023-01-13T10:20:01.263Z,11.7
2023-01-13T10:21:04.849Z,11.6
2023-01-13T10:22:10.250Z,11.6
2023-01-13T10:23:13.928Z,11.6
2023-01-13T10:24:16.410Z,11.6
2023-01-13T10:25:19.857Z,11.6
2023-01-13T10:26:23.551Z,11.7
2023-01-13T10:27:26.292Z,11.7
2023-01-13T10:28:29.712Z,11.6
2023-01-13T10:29:33.156Z,11.7
2023-01-13T10:30:36.956Z,11.7
2023-01-13T10:31:39.798Z,11.7
2023-01-13T10:32:43.437Z,11.7
2023-01-13T10:33:46.879Z,11.7
2023-01-13T10:34:50.032Z,11.7
2023-01-13T10:35:53.002Z,11.8
2023-01-13T10:36:56.561Z,11.8
2023-01-13T10:37:59.304Z,11.9
2023-01-13T10:39:02.944Z,11.9
2023-01-13T10:40:06.034Z,12
2023-01-13T10:41:09.323Z,12
2023-01-13T10:42:12.186Z,12.1
2023-01-13T10:43:15.584Z,12.2
2023-01-13T10:44:19.441Z,12.2
2023-01-13T10:45:22.479Z,12.3
2023-01-13T10:46:26.317Z,12.4
2023-01-13T10:47:30.237Z,12.4
2023-01-13T10:48:33.136Z,12.5
2023-01-13T10:49:36.918Z,12.5
2023-01-13T10:50:39.429Z,12.5
2023-01-13T10:51:43.103Z,12.5
2023-01-13T10:52:46.534Z,12.6
2023-01-13T10:53:49.374Z,12.6
2023-01-13T10:54:52.623Z,12.6
2023-01-13T10:55:56.041Z,12.7
2023-01-13T10:56:59.688Z,12.7
2023-01-13T10:58:02.697Z,12.8
2023-01-13T10:59:05.225Z,12.9
2023-01-13T11:00:08.925Z,13
2023-01-13T11:01:12.453Z,13
2023-01-13T11:02:27.801Z,13.1
2023-01-13T11:03:31.741Z,13.2
2023-01-13T11:04:34.866Z,13.2
2023-01-13T11:05:38.711Z,13.2
2023-01-13T11:06:41.905Z,13.3
2023-01-13T11:07:46.095Z,13.3
2023-01-13T11:08:49.267Z,13.3
2023-01-13T11:09:52.747Z,13.3
2023-01-13T11:10:56.493Z,13.2
2023-01-13T11:11:59.241Z,13.2
2023-01-13T11:13:03.280Z,13.1
2023-01-13T11:14:10.098Z,13
2023-01-13T11:15:13.957Z,13
2023-01-13T11:16:17.430Z,12.9
2023-01-13T11:17:21.181Z,12.8
2023-01-13T11:18:24.491Z,12.8
2023-01-13T11:19:28.531Z,12.7
2023-01-13T11:20:31.961Z,12.6
2023-01-13T11:21:35.400Z,12.6
2023-01-13T11:22:39.069Z,12.5
2023-01-13T11:23:42.571Z,12.5
2023-01-13T11:24:45.800Z,12.4
2023-01-13T11:25:49.662Z,12.4
2023-01-13T11:26:53.281Z,12.3
2023-01-13T11:27:56.415Z,12.2
2023-01-13T11:28:59.309Z,12.2
2023-01-13T11:30:02.333Z,12.2
2023-01-13T11:31:05.859Z,12.1
2023-01-13T11:32:10.075Z,12.1
2023-01-13T11:33:13.105Z,12
2023-01-13T11:34:16.320Z,12
2023-01-13T11:35:19.339Z,11.9
2023-01-13T11:36:22.439Z,11.9
2023-01-13T11:37:25.901Z,11.8
2023-01-13T11:38:29.986Z,11.8
2023-01-13T11:39:33.111Z,11.8
2023-01-13T11:40:36.247Z,11.7
2023-01-13T11:41:39.529Z,11.7
2023-01-13T11:42:42.959Z,11.7
2023-01-13T11:43:46.446Z,11.6
2023-01-13T11:44:49.744Z,11.6
2023-01-13T11:45:52.834Z,11.6
2023-01-13T11:46:56.398Z,11.6
2023-01-13T11:48:00.381Z,11.6
2023-01-13T11:49:03.156Z,11.5
2023-01-13T11:50:06.155Z,11.5
2023-01-13T11:51:09.507Z,11.5
2023-01-13T11:52:12.626Z,11.5
2023-01-13T11:53:16.359Z,11.5
2023-01-13T11:54:19.778Z,11.5
2023-01-13T11:55:23.970Z,11.5
2023-01-13T11:56:27.727Z,11.5
2023-01-13T11:57:31.192Z,11.5
2023-01-13T11:58:51.928Z,11.4
2023-01-13T11:59:55.209Z,11.4
2023-01-13T12:00:58.107Z,11.4
2023-01-13T12:02:02.237Z,11.4
2023-01-13T12:03:06.755Z,11.4
2023-01-13T12:04:10.457Z,11.4
2023-01-13T12:05:13.953Z,11.4
2023-01-13T12:06:17.640Z,11.4
2023-01-13T12:07:24.094Z,11.3
2023-01-13T12:08:26.824Z,11.3
2023-01-13T12:09:30.155Z,11.3
2023-01-13T12:10:33.550Z,11.3
2023-01-13T12:11:37.439Z,11.3
2023-01-13T12:12:41.416Z,11.4
2023-01-13T12:13:44.869Z,11.4
2023-01-13T12:14:47.811Z,11.3
2023-01-13T12:15:50.802Z,11.3
2023-01-13T12:16:53.979Z,11.3
2023-01-13T12:17:57.662Z,11.3
2023-01-13T12:19:01.138Z,11.3
2023-01-13T12:20:04.592Z,11.3
2023-01-13T12:21:07.329Z,11.3
2023-01-13T12:22:10.420Z,11.3
2023-01-13T12:23:14.247Z,11.3
2023-01-13T12:24:18.003Z,11.3
2023-01-13T12:25:21.158Z,11.2
2023-01-13T12:26:24.648Z,11.3
2023-01-13T12:27:27.799Z,11.2
2023-01-13T12:28:31.529Z,11.2
2023-01-13T12:29:34.502Z,11.2
2023-01-13T12:30:37.973Z,11.2
2023-01-13T12:31:41.255Z,11.2
2023-01-13T12:32:44.499Z,11.2
2023-01-13T12:33:47.615Z,11.2
2023-01-13T12:34:51.412Z,11.2
2023-01-13T12:35:54.821Z,11.1
2023-01-13T12:36:58.609Z,11.1
2023-01-13T12:38:02.071Z,11.1
2023-01-13T12:39:05.886Z,11.2
2023-01-13T12:40:09.558Z,11.1
2023-01-13T12:41:12.369Z,11.1
2023-01-13T12:42:15.811Z,11.1
2023-01-13T12:43:19.517Z,11.2
2023-01-13T12:44:22.550Z,11.2
2023-01-13T12:45:25.674Z,11.1
2023-01-13T12:46:28.803Z,11.2
2023-01-13T12:47:32.425Z,11.2
2023-01-13T12:48:35.569Z,11.2
2023-01-13T12:49:38.802Z,11.2
2023-01-13T12:50:42.140Z,11.2
2023-01-13T12:51:45.397Z,11.2
2023-01-13T12:52:47.965Z,11.2
2023-01-13T12:53:51.696Z,11.2
2023-01-13T12:54:55.738Z,11.2
2023-01-13T12:55:58.519Z,11.2
2023-01-13T12:57:02.310Z,11.2
2023-01-13T12:58:05.962Z,11.2
2023-01-13T12:59:09.192Z,11.2
2023-01-13T13:00:12.996Z,11.2
2023-01-13T13:01:16.920Z,11.2
2023-01-13T13:02:21.179Z,11.2
2023-01-13T13:03:25.184Z,11.2
2023-01-13T13:04:29.211Z,11.2
2023-01-13T13:05:31.677Z,11.2
2023-01-13T13:06:34.697Z,11.1
2023-01-13T13:07:38.395Z,11.1
2023-01-13T13:08:40.925Z,11.1
2023-01-13T13:09:44.695Z,11.1
2023-01-13T13:10:47.491Z,11
2023-01-13T13:11:50.663Z,11
2023-01-13T13:12:54.051Z,11
2023-01-13T13:13:57.701Z,11
2023-01-13T13:15:04.932Z,11
2023-01-13T13:16:08.542Z,11
2023-01-13T13:17:11.532Z,10.9
2023-01-13T13:18:15.244Z,10.9
2023-01-13T13:19:18.649Z,10.9
2023-01-13T13:20:22.147Z,10.8
2023-01-13T13:21:25.184Z,10.8
2023-01-13T13:22:28.218Z,10.8
2023-01-13T13:23:31.609Z,10.8
2023-01-13T13:24:34.410Z,10.8
2023-01-13T13:25:38.073Z,10.8
2023-01-13T13:26:41.850Z,10.7
2023-01-13T13:27:45.272Z,10.7
2023-01-13T13:28:48.732Z,10.7
2023-01-13T13:29:52.801Z,10.7
2023-01-13T13:30:56.659Z,10.7
2023-01-13T13:31:59.387Z,10.6
2023-01-13T13:33:02.249Z,10.6
2023-01-13T13:34:05.641Z,10.5
2023-01-13T13:35:08.633Z,10.5
2023-01-13T13:36:11.943Z,10.5
2023-01-13T13:37:14.996Z,10.4
2023-01-13T13:38:18.438Z,10.4
2023-01-13T13:39:22.647Z,10.4
2023-01-13T13:40:26.528Z,10.3
2023-01-13T13:41:30.535Z,10.4
2023-01-13T13:42:34.313Z,10.3
2023-01-13T13:43:37.711Z,10.3
2023-01-13T13:44:41.531Z,10.3
2023-01-13T13:45:46.038Z,10.3
2023-01-13T13:46:49.949Z,10.3
2023-01-13T13:47:53.461Z,10.3
2023-01-13T13:48:57.736Z,10.3
2023-01-13T13:50:01.197Z,10.3
2023-01-13T13:51:04.500Z,10.3
2023-01-13T13:52:07.506Z,10.2
2023-01-13T13:53:11.064Z,10.2
2023-01-13T13:54:14.774Z,10.2
2023-01-13T13:55:18.217Z,10.2
2023-01-13T13:56:21.455Z,10.2
2023-01-13T13:57:24.832Z,10.2
2023-01-13T13:58:28.065Z,10.2
2023-01-13T13:59:31.876Z,10.2
2023-01-13T14:00:35.012Z,10.2
2023-01-13T14:01:39.294Z,10.2
2023-01-13T14:02:43.230Z,10.2
2023-01-13T14:03:46.993Z,10.2
2023-01-13T14:04:50.343Z,10.2
2023-01-13T14:05:53.951Z,10.1
2023-01-13T14:06:57.338Z,10.2
2023-01-13T14:08:00.673Z,10.1
2023-01-13T14:09:04.092Z,10.1
2023-01-13T14:10:07.618Z,10.2
2023-01-13T14:11:11.138Z,10.1
2023-01-13T14:12:15.143Z,10.2
2023-01-13T14:13:18.455Z,10.1
2023-01-13T14:14:21.720Z,10.1
2023-01-13T14:15:24.800Z,10.1
2023-01-13T14:16:28.441Z,10.1
2023-01-13T14:17:32.135Z,10.1
2023-01-13T14:18:35.810Z,10.1
2023-01-13T14:19:39.909Z,10.1
2023-01-13T14:20:43.070Z,10.1
2023-01-13T14:21:46.746Z,10.1